Time;durP1;ratioP1;P1;durP2;ratioP2;P2;SDS_P1;SDS_P2;PMS_P1;PMS_P2;Temp;Humidity;BMP_temperature;BMP_pressure;BME280_temperature;BME280_humidity;BME280_pressure;Samples;Min_cycle;Max_cycle;Signal;HPM_P1;HPM_P2
2023/02/17 00:09:43;;;;;;;78.40;48.50;;;;;;;-0.27;99.78;99822.66;436759;1249;143127;-67
2023/02/17 00:19:48;;;;;;;71.00;43.70;;;;;;;-0.28;99.75;99821.98;434614;1252;143000;-66
2023/02/17 00:29:54;;;;;;;67.00;39.70;;;;;;;-0.38;99.84;99816.30;434036;1249;141922;-66
2023/02/17 00:40:00;;;;;;;68.00;39.90;;;;;;;-0.47;99.94;99815.91;441266;1251;144255;-66
2023/02/17 00:50:08;;;;;;;56.90;38.60;;;;;;;-0.62;99.98;99805.46;437790;1251;143776;-66
2023/02/17 01:00:16;;;;;;;58.10;36.90;;;;;;;-0.74;100.00;99806.34;442055;1249;142451;-66
2023/02/17 01:10:22;;;;;;;61.80;37.90;;;;;;;-0.77;100.00;99817.36;440479;1249;143571;-65
2023/02/17 01:20:28;;;;;;;58.60;35.70;;;;;;;-0.79;100.00;99808.46;436870;1250;142252;-65
2023/02/17 01:30:34;;;;;;;67.40;41.30;;;;;;;-0.68;100.00;99802.81;439738;1252;142157;-67
2023/02/17 01:40:48;;;;;;;57.70;36.30;;;;;;;-0.62;100.00;99785.87;435359;1249;208073;-65
2023/02/17 01:50:59;;;;;;;59.90;35.30;;;;;;;-0.57;100.00;99777.02;444956;1248;142081;-66
2023/02/17 02:01:07;;;;;;;65.70;40.00;;;;;;;-0.38;100.00;99768.14;435844;1248;142348;-67
2023/02/17 02:11:12;;;;;;;62.30;40.50;;;;;;;-0.15;100.00;99757.27;435225;1252;143583;-66
2023/02/17 02:21:48;;;;;;;50.60;33.90;;;;;;;0.05;100.00;99740.55;435528;1252;142441;-67
2023/02/17 02:32:01;;;;;;;;;;;;;;;0.17;100.00;99721.05;444171;1249;209028;-67
2023/02/17 02:42:10;;;;;;;50.70;33.00;;;;;;;0.31;100.00;99703.55;436940;1252;131221;-67
2023/02/17 02:52:25;;;;;;;50.20;32.50;;;;;;;0.51;100.00;99690.25;434403;1250;141772;-67
2023/02/17 03:02:38;;;;;;;51.30;32.90;;;;;;;0.66;100.00;99694.23;435697;1250;143626;-67
2023/02/17 03:12:44;;;;;;;46.00;28.60;;;;;;;0.80;100.00;99702.02;437584;1252;155737;-67
2023/02/17 03:22:50;;;;;;;46.40;32.00;;;;;;;0.91;100.00;99697.30;438342;1252;200165;-68
2023/02/17 03:32:56;;;;;;;53.10;30.50;;;;;;;1.01;100.00;99700.02;436862;1252;142433;-67
2023/02/17 03:43:02;;;;;;;46.60;27.30;;;;;;;1.03;100.00;99704.10;434937;1250;142844;-66
2023/02/17 03:53:08;;;;;;;48.90;29.00;;;;;;;1.07;100.00;99690.22;442660;1249;141041;-66
2023/02/17 04:03:14;;;;;;;40.60;28.10;;;;;;;1.16;100.00;99678.98;437009;1248;142730;-67
2023/02/17 04:13:19;;;;;;;43.30;28.60;;;;;;;1.23;100.00;99675.36;440497;1249;141755;-66
2023/02/17 04:23:25;;;;;;;43.40;28.60;;;;;;;1.32;100.00;99664.62;435301;1250;142305;-67
2023/02/17 04:33:31;;;;;;;46.20;28.40;;;;;;;1.40;100.00;99659.09;438707;1250;144687;-67
2023/02/17 04:43:37;;;;;;;39.10;25.70;;;;;;;1.45;100.00;99647.05;435230;1252;197650;-67
2023/02/17 04:53:43;;;;;;;39.70;25.50;;;;;;;1.52;100.00;99638.07;438584;1248;141270;-67
2023/02/17 05:03:49;;;;;;;38.50;24.10;;;;;;;1.57;99.89;99630.02;434083;1249;142543;-66
2023/02/17 05:13:54;;;;;;;39.90;24.20;;;;;;;1.63;99.73;99621.07;442145;1250;142068;-67
2023/02/17 05:24:00;;;;;;;37.70;22.20;;;;;;;1.70;99.47;99614.84;444093;1250;142498;-66
2023/02/17 05:34:06;;;;;;;37.40;23.70;;;;;;;1.73;99.03;99603.02;434560;1250;143520;-66
2023/02/17 05:44:12;;;;;;;46.10;26.90;;;;;;;1.73;98.79;99608.55;434330;1252;143785;-66
2023/02/17 05:54:18;;;;;;;37.50;24.70;;;;;;;1.72;98.85;99606.15;434392;1250;142759;-66
2023/02/17 06:04:24;;;;;;;41.00;26.90;;;;;;;1.74;98.84;99596.95;434427;1252;142670;-66
2023/02/17 06:14:30;;;;;;;35.30;24.20;;;;;;;1.89;98.90;99587.21;434248;1250;142060;-68
2023/02/17 06:24:36;;;;;;;39.90;25.40;;;;;;;2.00;98.75;99591.56;439989;1252;141865;-67
2023/02/17 06:34:42;;;;;;;35.60;23.50;;;;;;;2.19;98.80;99575.64;446616;1250;144128;-66
2023/02/17 06:44:48;;;;;;;36.20;25.30;;;;;;;2.42;98.58;99574.27;451123;1249;141488;-67
2023/02/17 06:54:54;;;;;;;32.50;23.40;;;;;;;2.63;98.52;99571.02;443866;1250;142102;-67
2023/02/17 07:04:59;;;;;;;39.60;26.30;;;;;;;2.80;98.23;99560.64;442438;1252;142760;-67
2023/02/17 07:15:06;;;;;;;35.20;24.30;;;;;;;2.89;98.62;99554.28;448135;1252;142977;-66
2023/02/17 07:25:16;;;;;;;34.80;24.10;;;;;;;3.05;98.75;99551.34;449962;1249;142547;-67
2023/02/17 07:35:22;;;;;;;38.10;25.90;;;;;;;3.18;98.80;99550.06;444903;1251;141917;-66
2023/02/17 07:45:27;;;;;;;39.40;26.00;;;;;;;3.25;98.90;99554.69;448777;1251;141478;-67
2023/02/17 07:55:33;;;;;;;35.20;24.30;;;;;;;3.39;99.11;99548.99;449890;1251;141775;-66
2023/02/17 08:05:41;;;;;;;34.00;23.40;;;;;;;3.64;99.33;99542.73;450950;1251;142838;-66
2023/02/17 08:15:47;;;;;;;31.90;22.60;;;;;;;3.75;98.91;99547.35;450284;1249;141944;-67
2023/02/17 08:25:52;;;;;;;36.00;24.70;;;;;;;3.90;99.06;99539.40;448084;1252;142260;-66
2023/02/17 08:35:58;;;;;;;33.90;23.00;;;;;;;4.14;99.84;99525.84;438244;1251;142652;-67
2023/02/17 08:46:08;;;;;;;31.20;24.30;;;;;;;4.40;100.00;99514.60;437179;1250;142498;-65
2023/02/17 08:56:14;;;;;;;34.20;24.70;;;;;;;4.54;100.00;99519.80;448334;1250;142576;-67
2023/02/17 09:06:21;;;;;;;33.20;25.10;;;;;;;4.56;100.00;99521.96;450545;1251;143429;-67
2023/02/17 09:16:27;;;;;;;37.00;26.90;;;;;;;4.60;100.00;99518.34;447173;1249;143610;-66
2023/02/17 09:26:33;;;;;;;34.70;23.40;;;;;;;4.56;100.00;99510.18;437650;1248;143942;-66
2023/02/17 09:36:42;;;;;;;33.20;23.50;;;;;;;4.56;100.00;99494.20;435467;1251;144428;-68
2023/02/17 09:46:54;;;;;;;34.50;24.30;;;;;;;4.58;100.00;99478.04;439499;1253;141364;-67
2023/02/17 09:57:12;;;;;;;35.60;25.20;;;;;;;4.62;100.00;99473.71;448239;1252;143636;-67
2023/02/17 10:07:22;;;;;;;37.50;25.00;;;;;;;4.58;100.00;99463.45;443039;1249;142307;-67
2023/02/17 10:17:36;;;;;;;35.20;24.70;;;;;;;4.71;100.00;99443.67;451052;1248;142688;-67
2023/02/17 10:27:46;;;;;;;36.60;27.90;;;;;;;4.92;100.00;99421.10;450433;1251;143316;-66
2023/02/17 10:37:58;;;;;;;34.60;25.50;;;;;;;4.99;100.00;99409.90;450791;1249;142000;-67
2023/02/17 10:48:07;;;;;;;33.90;23.50;;;;;;;4.98;100.00;99396.20;446394;1251;141566;-67
2023/02/17 10:58:20;;;;;;;37.10;24.80;;;;;;;5.00;100.00;99378.06;434801;1252;142710;-69
2023/02/17 11:08:37;;;;;;;31.90;22.60;;;;;;;5.04;100.00;99356.38;437161;1251;142446;-67
2023/02/17 11:18:49;;;;;;;32.60;22.50;;;;;;;5.03;100.00;99325.36;449650;1251;143813;-66
2023/02/17 11:28:55;;;;;;;31.00;22.40;;;;;;;5.02;100.00;99306.32;444808;1250;141598;-67
2023/02/17 11:39:13;;;;;;;31.70;22.40;;;;;;;5.04;100.00;99296.36;446506;1251;143746;-67
2023/02/17 11:49:42;;;;;;;34.50;23.40;;;;;;;5.07;100.00;99281.84;449350;1249;145322;-67
2023/02/17 12:00:04;;;;;;;29.90;22.10;;;;;;;5.12;100.00;99255.55;450662;1249;143260;-67
2023/02/17 12:10:20;;;;;;;29.50;22.20;;;;;;;5.13;100.00;99222.55;444546;1249;141851;-67
2023/02/17 12:20:44;;;;;;;29.60;22.60;;;;;;;5.22;100.00;99194.89;443374;1249;142965;-66
2023/02/17 12:31:01;;;;;;;30.60;22.90;;;;;;;5.36;100.00;99177.23;450518;1249;142105;-66
2023/02/17 12:41:10;;;;;;;34.00;24.60;;;;;;;5.39;100.00;99158.83;451311;1249;141888;-67
2023/02/17 12:51:22;;;;;;;34.80;25.00;;;;;;;5.38;100.00;99134.93;451091;1249;143641;-67
2023/02/17 13:01:32;;;;;;;35.20;24.70;;;;;;;5.45;100.00;99120.16;450543;1249;143071;-67
2023/02/17 13:11:38;;;;;;;32.70;24.50;;;;;;;5.44;100.00;99107.20;451226;1249;141619;-68
2023/02/17 13:21:54;;;;;;;27.70;21.20;;;;;;;5.43;100.00;99088.66;450519;1249;142390;-68
2023/02/17 13:32:03;;;;;;;31.10;22.70;;;;;;;5.45;100.00;99078.70;437675;1249;142883;-67
2023/02/17 13:42:37;;;;;;;32.10;24.60;;;;;;;5.43;100.00;99056.20;435945;1250;141216;-68
2023/02/17 13:52:44;;;;;;;29.70;22.80;;;;;;;5.40;100.00;99043.70;434867;1252;144598;-68
2023/02/17 14:02:53;;;;;;;26.90;21.70;;;;;;;5.39;100.00;99035.59;451080;1249;141814;-69
2023/02/17 14:13:00;;;;;;;29.00;23.30;;;;;;;5.41;100.00;99012.57;450472;1249;142887;-68
2023/02/17 14:23:10;;;;;;;27.40;22.30;;;;;;;5.44;100.00;98989.33;451157;1249;143069;-67
2023/02/17 14:33:23;;;;;;;26.60;21.10;;;;;;;5.45;100.00;98968.77;451248;1248;142489;-67
2023/02/17 14:43:29;;;;;;;24.60;20.10;;;;;;;5.45;100.00;98947.23;450458;1248;142158;-67
2023/02/17 14:53:37;;;;;;;23.30;18.20;;;;;;;5.45;100.00;98919.84;451149;1249;143543;-67
2023/02/17 15:03:44;;;;;;;23.70;20.80;;;;;;;5.46;100.00;98901.90;440011;1249;141008;-68
2023/02/17 15:13:50;;;;;;;22.50;18.10;;;;;;;5.44;100.00;98879.63;450347;1249;142682;-67
2023/02/17 15:23:58;;;;;;;22.90;18.60;;;;;;;5.43;100.00;98861.27;441523;1249;142181;-68
2023/02/17 15:34:06;;;;;;;22.50;17.40;;;;;;;5.42;100.00;98840.54;449749;1249;142664;-66
2023/02/17 15:44:16;;;;;;;22.10;18.20;;;;;;;5.41;100.00;98814.50;450455;1249;142685;-66
2023/02/17 15:54:22;;;;;;;17.80;15.80;;;;;;;5.44;100.00;98783.11;450419;1249;142703;-67
2023/02/17 16:04:31;;;;;;;23.20;17.40;;;;;;;5.47;100.00;98760.71;450110;1249;143034;-68
2023/02/17 16:14:39;;;;;;;17.30;15.50;;;;;;;5.53;100.00;98745.30;439934;1249;142517;-67
2023/02/17 16:24:45;;;;;;;19.10;15.50;;;;;;;5.55;100.00;98734.77;434032;1249;142556;-67
2023/02/17 16:34:51;;;;;;;19.20;16.20;;;;;;;5.55;100.00;98739.83;441650;1249;142398;-68
2023/02/17 16:44:57;;;;;;;19.40;16.30;;;;;;;5.55;100.00;98734.77;448199;1249;142692;-67
2023/02/17 16:55:02;;;;;;;17.80;15.50;;;;;;;5.58;100.00;98721.89;449580;1247;142234;-67
2023/02/17 17:05:10;;;;;;;17.70;14.40;;;;;;;5.65;100.00;98701.17;444255;1247;142693;-68
2023/02/17 17:15:17;;;;;;;20.70;15.80;;;;;;;5.73;100.00;98685.45;435982;1252;141656;-67
2023/02/17 17:25:23;;;;;;;22.20;17.00;;;;;;;5.77;100.00;98678.64;444292;1249;142814;-65
2023/02/17 17:35:29;;;;;;;14.90;13.40;;;;;;;5.87;100.00;98667.45;435800;1250;141850;-66
2023/02/17 17:45:35;;;;;;;20.00;15.30;;;;;;;5.99;100.00;98650.42;448318;1249;142709;-67
2023/02/17 17:55:41;;;;;;;19.50;15.70;;;;;;;6.00;100.00;98641.53;445919;1249;210651;-67
2023/02/17 18:05:47;;;;;;;27.30;18.60;;;;;;;6.01;100.00;98624.41;451102;1248;142478;-67
2023/02/17 18:15:53;;;;;;;16.20;13.10;;;;;;;6.17;100.00;98626.07;437496;1250;143813;-68
2023/02/17 18:25:59;;;;;;;16.40;14.60;;;;;;;6.38;100.00;98612.98;450910;1249;142886;-67
2023/02/17 18:36:10;;;;;;;17.50;13.80;;;;;;;6.49;100.00;98606.44;444958;1251;142981;-68
2023/02/17 18:46:16;;;;;;;17.70;15.70;;;;;;;6.60;100.00;98615.94;450050;1249;143084;-67
2023/02/17 18:56:24;;;;;;;15.90;12.90;;;;;;;6.78;100.00;98614.63;450957;1248;142256;-67
2023/02/17 19:06:32;;;;;;;11.70;10.50;;;;;;;7.10;100.00;98603.71;450856;1249;142118;-66
2023/02/17 19:16:39;;;;;;;11.50;10.30;;;;;;;7.34;100.00;98601.13;450414;1249;141916;-68
2023/02/17 19:26:45;;;;;;;13.20;11.90;;;;;;;7.45;100.00;98598.66;451092;1249;142285;-67
2023/02/17 19:36:51;;;;;;;13.70;10.90;;;;;;;7.60;100.00;98593.13;450045;1249;143648;-67
2023/02/17 19:46:57;;;;;;;11.90;10.70;;;;;;;7.71;100.00;98594.35;450914;1248;143679;-67
2023/02/17 19:57:07;;;;;;;10.40;9.30;;;;;;;7.81;100.00;98597.98;441370;1250;143353;-67
2023/02/17 20:07:13;;;;;;;9.40;8.50;;;;;;;7.87;100.00;98598.64;449962;1249;142860;-67
2023/02/17 20:17:19;;;;;;;10.90;9.80;;;;;;;7.88;100.00;98591.44;450868;1248;142673;-67
2023/02/17 20:27:25;;;;;;;12.10;9.70;;;;;;;7.84;100.00;98568.66;440622;1249;141576;-67
2023/02/17 20:37:31;;;;;;;10.00;8.70;;;;;;;7.82;100.00;98572.30;437334;1248;142683;-68
2023/02/17 20:47:36;;;;;;;11.40;7.10;;;;;;;7.88;100.00;98562.67;440420;1249;142312;-67
2023/02/17 20:57:43;;;;;;;7.00;6.10;;;;;;;8.02;100.00;98558.95;434660;1252;143920;-67
2023/02/17 21:07:49;;;;;;;6.40;5.60;;;;;;;8.19;100.00;98533.88;450759;1249;142909;-67
2023/02/17 21:17:54;;;;;;;6.40;5.70;;;;;;;8.37;100.00;98528.73;450889;1250;142636;-68
2023/02/17 21:28:00;;;;;;;6.40;5.20;;;;;;;8.44;100.00;98515.90;450014;1248;165258;-67
2023/02/17 21:38:06;;;;;;;5.20;4.40;;;;;;;8.53;100.00;98516.66;437425;1249;143371;-68
2023/02/17 21:48:12;;;;;;;5.40;4.90;;;;;;;8.67;100.00;98524.00;441796;1251;142963;-68
2023/02/17 21:58:18;;;;;;;5.10;3.80;;;;;;;8.71;100.00;98574.31;437667;1249;141673;-67
2023/02/17 22:08:24;;;;;;;1.90;1.50;;;;;;;8.45;100.00;98587.32;450831;1249;142404;-67
2023/02/17 22:18:30;;;;;;;1.60;0.90;;;;;;;8.16;100.00;98592.80;442303;1249;141521;-68
2023/02/17 22:28:36;;;;;;;1.90;0.90;;;;;;;7.80;100.00;98608.69;443280;1250;142443;-67
2023/02/17 22:38:43;;;;;;;1.00;0.80;;;;;;;7.42;99.14;98614.20;451066;1249;142674;-67
2023/02/17 22:48:51;;;;;;;1.40;0.90;;;;;;;7.05;97.72;98617.11;450046;1250;141596;-67
2023/02/17 22:58:59;;;;;;;2.00;1.60;;;;;;;6.65;97.07;98611.79;450802;1249;142636;-67
2023/02/17 23:09:06;;;;;;;1.70;1.50;;;;;;;6.53;97.33;98618.30;450607;1249;143083;-67
2023/02/17 23:19:15;;;;;;;3.00;1.70;;;;;;;6.34;97.48;98623.14;441480;1252;141799;-67
2023/02/17 23:29:22;;;;;;;1.70;1.50;;;;;;;6.16;96.91;98610.16;450820;1252;142508;-67
2023/02/17 23:39:28;;;;;;;3.90;1.00;;;;;;;6.13;92.97;98616.03;450743;1249;141491;-66
2023/02/17 23:49:33;;;;;;;1.50;0.80;;;;;;;6.06;89.91;98650.05;442778;1249;142070;-68
2023/02/17 23:59:39;;;;;;;0.90;0.70;;;;;;;5.96;87.01;98670.21;437467;1249;142961;-66
